RJFFRKPK

Guest
Details From RJFF - FUKUOKA
To RKPK - GIMHAE INTL
Flight Number -
Tags decoded
Created
Modified
Stats Distance 124 nm / 229 km
Max Altitude 0 ft / 0 m
Waypoints 4
Social Downloads 2
Likes 0
Share VATSIM

Download

Looking for another format? Having issues loading an existing format? Contact us
Advertisement - Login to hide

Notes

Requested: RJFF APELA KMH14 RKPK

Route

RJFF APELA KMH14 RKPK

ID Type Via Altitude Latitude Longitude Leg Dist Tot Dist Heading (true) Name
O RJFF APT - 0 ft / 0 m 33.58594˚ 130.45069˚ - 0 nm - FUKUOKA
APELA FIX - 0 ft / 0 m 34.72311˚ 129.23329˚ 91 nm 91 nm 319° / 318° -
KMH14 FIX - 0 ft / 0 m 34.96422˚ 128.96561˚ 19 nm 110 nm 318° / 318° -
O RKPK APT - 0 ft / 0 m 35.18066˚ 128.93798˚ 13 nm 123 nm 354° / 354° GIMHAE INTL

Altitude Profile

Advertisement - Login to hide

RJFF

Details ICAO RJFF (FUK)
Name FUKUOKA
Region Japan
Timezone Asia/Tokyo (UTC+9.0)
Stats Elevation 32 ft / 10 m (AMSL)
Location 33.585943° 130.450686°
Runways 1
Magnetic Variation 7.448° W

METAR

RJFF 112100Z 33012KT 9999 FEW030 BKN045 04/M06 Q1024

Decode

TAF

TAF RJFF 111709Z 1118/1300 31015KT 7000 -SHSN FEW015 SCT025 BKN040 TEMPO 1118/1200 31015G25KT 3000 -SHSN

Decode

Departure Runways

ID Width Length Bearing (true) Bearing (mag) Surface Threshold Offset Overrun Length
16 197 ft / 60 m 9,217 ft / 2,810 m 150.35° 157.80° Asphalt 0 ft / 0 m 719 ft / 219 m
34 197 ft / 60 m 9,217 ft / 2,810 m 330.35° 337.80° Asphalt 0 ft / 0 m 801 ft / 244 m

RKPK

Details ICAO RKPK (PUS)
Name GIMHAE INTL
Region South Korea
Timezone Asia/Seoul (UTC+9.0)
Stats Elevation 6 ft / 2 m (AMSL)
Location 35.180657° 128.937982°
Runways 2
Magnetic Variation 7.872° W

METAR

RKPK 112100Z 32006KT CAVOK M05/M13 Q1027 NOSIG

Decode

TAF

TAF RKPK 111700Z 1118/1224 30008KT 9999 SCT030 TNM06/1121Z TX06/1206Z BECMG 1202/1203 31006G16KT BECMG 1209/1210 30008KT

Decode

Destination Runways

ID Width Length Bearing (true) Bearing (mag) Surface Threshold Offset Overrun Length
18L 150 ft / 46 m 9,030 ft / 2,752 m 174.04° 181.91° Asphalt 0 ft / 0 m 987 ft / 301 m
18R 197 ft / 60 m 10,525 ft / 3,208 m 173.98° 181.85° Concrete 0 ft / 0 m 709 ft / 216 m
36L 197 ft / 60 m 10,525 ft / 3,208 m 353.98° 1.85° Concrete 0 ft / 0 m 1,001 ft / 305 m
36R 150 ft / 46 m 9,030 ft / 2,752 m 354.04° 1.91° Asphalt 0 ft / 0 m 990 ft / 302 m

Approach Navaids

Runway Type Ident Frequency Range Bearing (true) Bearing (mag) Slope Elevation
36L Localiser IKMA 108.50 MHz 18 nm / 33 km 354.11° 1.98° - 13 ft / 4 m (AMSL)
36L Glidescope IKMA 108.50 MHz 10 nm / 19 km 354.00° 1.87° 3.00° 13 ft / 4 m (AMSL)
36L DME IKMA 108.50 MHz 18 nm / 33 km - - - 11 ft / 3 m (AMSL)
36R Localiser IKHE 109.50 MHz 18 nm / 33 km 354.21° 2.08° - 13 ft / 4 m (AMSL)
36R Glidescope IKHE 109.50 MHz 10 nm / 19 km 353.81° 1.68° 3.00° 13 ft / 4 m (AMSL)
36R DME IKHE 109.50 MHz 18 nm / 33 km - - - 11 ft / 3 m (AMSL)

Popular Alternatives